Time;durP1;ratioP1;P1;durP2;ratioP2;P2;SDS_P1;SDS_P2;PMS_P1;PMS_P2;Temp;Humidity;BMP_temperature;BMP_pressure;BME280_temperature;BME280_humidity;BME280_pressure;Samples;Min_cycle;Max_cycle;Signal;HPM_P1;HPM_P2
2024/04/13 00:01:39;;;;;;;11.60;5.95;;;;;;;15.82;100.00;99531.28;5428958;26;20002;-69
2024/04/13 00:04:07;;;;;;;11.82;6.18;;;;;;;15.79;100.00;99575.34;5430076;26;19999;-69
2024/04/13 00:06:34;;;;;;;10.63;6.07;;;;;;;15.69;100.00;99562.31;5430967;26;20446;-69
2024/04/13 00:09:00;;;;;;;9.52;6.30;;;;;;;15.23;100.00;99528.44;5428993;26;20054;-69
2024/04/13 00:11:27;;;;;;;10.13;6.57;;;;;;;15.58;100.00;99571.25;5400206;26;20552;-71
2024/04/13 00:13:53;;;;;;;11.35;6.40;;;;;;;15.74;100.00;99567.97;5397616;26;20002;-69
2024/04/13 00:16:18;;;;;;;9.98;6.18;;;;;;;15.44;100.00;99541.22;5429443;26;20350;-72
2024/04/13 00:18:45;;;;;;;10.13;6.35;;;;;;;15.73;100.00;99567.13;5396582;26;19995;-70
2024/04/13 00:21:10;;;;;;;11.68;6.40;;;;;;;15.84;100.00;99559.97;5429818;26;20092;-72
2024/04/13 00:23:38;;;;;;;11.98;7.35;;;;;;;15.91;100.00;99561.81;5430812;26;20582;-69
2024/04/13 00:26:03;;;;;;;12.55;6.47;;;;;;;15.77;100.00;99562.41;5427894;26;20049;-70
2024/04/13 00:28:29;;;;;;;12.15;7.15;;;;;;;15.45;100.00;99555.94;5399626;26;20025;-71
2024/04/13 00:30:57;;;;;;;11.70;6.22;;;;;;;14.95;100.00;99552.13;5428635;26;19999;-69
2024/04/13 00:33:25;;;;;;;8.07;5.70;;;;;;;14.92;100.00;99549.78;5426929;26;20003;-71
2024/04/13 00:35:50;;;;;;;9.70;6.10;;;;;;;14.83;100.00;99526.31;5429352;26;20081;-70
2024/04/13 00:38:16;;;;;;;13.98;6.28;;;;;;;14.95;100.00;99553.91;5392968;26;20013;-70
2024/04/13 00:40:42;;;;;;;9.85;5.80;;;;;;;14.85;100.00;99553.16;5398243;26;20130;-71
2024/04/13 00:43:11;;;;;;;9.90;5.88;;;;;;;14.60;100.00;99524.09;5423764;26;19995;-72
2024/04/13 00:45:45;;;;;;;13.00;6.30;;;;;;;14.58;100.00;99546.97;5429323;26;20071;-70
2024/04/13 00:48:13;;;;;;;8.40;6.15;;;;;;;13.92;100.00;99520.03;5399070;26;20473;-72
2024/04/13 00:50:45;;;;;;;9.45;6.15;;;;;;;14.19;100.00;99547.19;5384053;26;20338;-69
2024/04/13 00:53:11;;;;;;;9.65;5.95;;;;;;;14.26;100.00;99539.59;5396208;26;20457;-72
2024/04/13 00:55:43;;;;;;;9.68;6.22;;;;;;;14.33;100.00;99546.69;5427503;26;19998;-71
2024/04/13 00:58:15;;;;;;;12.20;6.25;;;;;;;14.49;100.00;99540.00;5424574;26;20041;-71
2024/04/13 01:00:44;;;;;;;8.43;6.20;;;;;;;14.46;100.00;99504.50;5395879;26;20295;-73
2024/04/13 01:03:09;;;;;;;10.43;6.50;;;;;;;14.62;100.00;99527.44;5399129;26;20488;-70
2024/04/13 01:05:35;;;;;;;9.95;5.80;;;;;;;14.63;100.00;99534.28;5426142;26;20434;-69
2024/04/13 01:08:00;;;;;;;10.68;5.85;;;;;;;14.66;100.00;99535.78;5395027;26;20002;-70
2024/04/13 01:10:27;;;;;;;10.93;5.97;;;;;;;14.51;100.00;99496.19;5412436;26;19991;-71
2024/04/13 01:12:54;;;;;;;9.25;5.75;;;;;;;14.77;100.00;99535.56;5397429;26;20259;-70
2024/04/13 01:15:27;;;;;;;11.80;5.90;;;;;;;14.59;100.00;99512.00;5428904;26;20095;-69
2024/04/13 01:17:53;;;;;;;11.18;5.88;;;;;;;14.93;100.00;99534.88;5424535;26;20010;-69
2024/04/13 01:20:18;;;;;;;10.43;5.55;;;;;;;14.94;100.00;99545.22;5398625;26;20013;-71
2024/04/13 01:22:47;;;;;;;8.90;5.38;;;;;;;14.60;100.00;99500.56;5456599;26;20010;-70
2024/04/13 01:25:15;;;;;;;10.40;5.28;;;;;;;14.83;100.00;99529.72;5398697;26;19999;-69
2024/04/13 01:27:41;;;;;;;11.13;5.35;;;;;;;14.98;100.00;99537.88;5429253;26;19999;-69
2024/04/13 01:30:09;;;;;;;8.32;4.88;;;;;;;15.04;100.00;99539.91;5404035;26;20455;-71
2024/04/13 01:32:34;;;;;;;11.27;4.85;;;;;;;15.08;100.00;99541.25;5437478;26;20007;-72
2024/04/13 01:35:13;;;;;;;9.73;5.38;;;;;;;15.11;100.00;99547.97;5398149;26;19994;-70
2024/04/13 01:37:42;;;;;;;8.77;5.43;;;;;;;15.21;100.00;99545.28;5455618;26;20069;-70
2024/04/13 01:40:09;;;;;;;9.57;5.25;;;;;;;15.02;100.00;99514.84;5398544;26;20017;-72
2024/04/13 01:42:39;;;;;;;12.60;6.22;;;;;;;15.12;100.00;99539.16;5421823;26;20728;-69
2024/04/13 01:45:08;;;;;;;11.20;5.18;;;;;;;15.05;100.00;99544.16;5458688;26;20407;-69
2024/04/13 01:47:36;;;;;;;11.43;4.75;;;;;;;14.96;100.00;99537.22;5429755;26;20003;-70
2024/04/13 01:50:04;;;;;;;10.88;5.00;;;;;;;14.87;100.00;99536.31;5426473;26;20476;-70
2024/04/13 01:52:30;;;;;;;7.45;4.93;;;;;;;14.93;100.00;99530.50;5405868;26;20442;-69
2024/04/13 01:54:57;;;;;;;10.63;5.30;;;;;;;15.03;100.00;99535.63;5429898;26;20022;-70
2024/04/13 01:57:25;;;;;;;8.38;5.07;;;;;;;15.03;100.00;99529.59;5398435;26;20017;-70
2024/04/13 01:59:51;;;;;;;10.35;5.13;;;;;;;14.85;100.00;99491.13;5431071;26;20079;-70
2024/04/13 02:02:19;;;;;;;9.45;5.03;;;;;;;14.96;100.00;99503.16;5401361;26;20006;-70
2024/04/13 02:04:47;;;;;;;10.38;5.07;;;;;;;15.19;100.00;99537.56;5432720;26;20005;-70
2024/04/13 02:07:13;;;;;;;10.23;5.27;;;;;;;14.71;100.00;99473.34;5429588;26;20003;-69
2024/04/13 02:09:38;;;;;;;8.63;5.00;;;;;;;15.08;100.00;99537.81;5401167;26;20084;-70
2024/04/13 02:12:08;;;;;;;9.15;5.00;;;;;;;14.83;100.00;99532.34;5426809;26;20932;-70
2024/04/13 02:14:37;;;;;;;9.88;5.60;;;;;;;14.78;100.00;99504.03;5432041;26;20026;-70
2024/04/13 02:17:03;;;;;;;9.70;5.00;;;;;;;15.08;100.00;99543.06;5425888;26;20010;-70
2024/04/13 02:19:30;;;;;;;8.90;5.10;;;;;;;14.95;100.00;99539.03;5429765;26;20002;-73
2024/04/13 02:21:56;;;;;;;9.68;5.10;;;;;;;14.72;100.00;99527.34;5400575;26;20341;-70
2024/04/13 02:24:21;;;;;;;9.40;5.03;;;;;;;14.84;100.00;99543.63;5440835;26;20011;-72
2024/04/13 02:26:49;;;;;;;8.80;4.85;;;;;;;14.79;100.00;99525.78;5397154;26;19996;-70
2024/04/13 02:29:15;;;;;;;7.72;5.57;;;;;;;14.89;100.00;99531.75;5437246;26;20072;-71
2024/04/13 02:31:43;;;;;;;7.65;4.57;;;;;;;14.90;100.00;99538.63;5453837;26;20010;-71
2024/04/13 02:34:11;;;;;;;8.40;4.40;;;;;;;14.94;100.00;99539.16;5425898;26;20013;-72
2024/04/13 02:36:38;;;;;;;9.45;4.68;;;;;;;14.80;100.00;99532.63;5431620;26;20002;-70
2024/04/13 02:39:07;;;;;;;9.32;4.57;;;;;;;14.83;100.00;99542.00;5400752;26;20035;-70
2024/04/13 02:41:33;;;;;;;8.13;4.85;;;;;;;14.60;100.00;99531.97;5435641;26;20011;-71
2024/04/13 02:43:58;;;;;;;8.98;5.28;;;;;;;14.42;100.00;99545.00;5430547;26;20006;-73
2024/04/13 02:46:26;;;;;;;9.13;5.50;;;;;;;14.48;100.00;99540.97;5427080;26;20023;-72
2024/04/13 02:48:51;;;;;;;8.27;5.00;;;;;;;14.63;100.00;99543.94;5431724;26;20141;-72
2024/04/13 02:51:17;;;;;;;11.20;5.45;;;;;;;14.65;100.00;99545.44;5399918;26;20564;-72
2024/04/13 02:53:44;;;;;;;8.63;5.30;;;;;;;14.57;100.00;99538.31;5431418;26;20068;-73
2024/04/13 02:56:09;;;;;;;8.30;4.60;;;;;;;14.47;100.00;99532.28;5401022;26;19995;-71
2024/04/13 02:58:35;;;;;;;8.82;4.72;;;;;;;14.53;100.00;99536.94;5420577;26;20020;-72
2024/04/13 03:01:02;;;;;;;9.10;4.80;;;;;;;14.40;100.00;99505.06;5375155;26;20780;-70
2024/04/13 03:03:30;;;;;;;9.20;4.82;;;;;;;14.70;100.00;99537.16;5415490;26;20010;-73
2024/04/13 03:06:11;;;;;;;7.70;4.60;;;;;;;14.75;100.00;99530.50;5458159;26;20628;-70
2024/04/13 03:08:39;;;;;;;8.57;5.75;;;;;;;14.62;100.00;99530.03;5401589;26;20098;-71
2024/04/13 03:11:05;;;;;;;9.05;4.97;;;;;;;14.63;100.00;99529.06;5424490;26;20003;-72
2024/04/13 03:13:31;;;;;;;9.95;5.00;;;;;;;14.56;100.00;99539.25;5410028;26;20000;-71
2024/04/13 03:16:08;;;;;;;9.65;5.60;;;;;;;14.68;100.00;99536.47;5413122;26;20069;-71
2024/04/13 03:18:38;;;;;;;10.80;5.07;;;;;;;14.70;100.00;99529.28;5441978;26;19999;-72
2024/04/13 03:21:04;;;;;;;10.05;4.95;;;;;;;14.48;100.00;99539.19;5430035;26;20002;-72
2024/04/13 03:23:32;;;;;;;10.13;5.43;;;;;;;14.38;100.00;99539.25;5504039;25;20011;-72
2024/04/13 03:26:00;;;;;;;12.52;6.00;;;;;;;14.38;100.00;99536.63;5401682;26;19995;-73
2024/04/13 03:28:29;;;;;;;11.05;5.20;;;;;;;14.26;100.00;99529.94;5428217;26;20045;-70
2024/04/13 03:30:57;;;;;;;9.05;5.60;;;;;;;13.86;100.00;99509.34;5429705;26;20007;-70
2024/04/13 03:33:23;;;;;;;9.50;5.00;;;;;;;13.97;100.00;99536.13;5438253;26;20978;-72
2024/04/13 03:35:48;;;;;;;11.50;4.95;;;;;;;14.21;100.00;99537.41;5406079;26;20882;-70
2024/04/13 03:38:17;;;;;;;8.40;4.90;;;;;;;14.01;100.00;99498.25;5433133;26;20019;-70
2024/04/13 03:40:46;;;;;;;11.53;4.83;;;;;;;14.26;100.00;99547.44;5430815;26;20002;-72
2024/04/13 03:43:14;;;;;;;8.97;5.10;;;;;;;14.22;100.00;99545.09;5433525;26;20096;-71
2024/04/13 03:45:40;;;;;;;9.77;5.70;;;;;;;14.10;100.00;99540.22;5432611;26;20072;-71
2024/04/13 03:48:05;;;;;;;10.25;5.25;;;;;;;13.94;100.00;99549.47;5419228;26;20107;-71
2024/04/13 03:50:33;;;;;;;9.50;4.88;;;;;;;14.21;100.00;99540.81;5426878;26;20038;-71
2024/04/13 03:52:58;;;;;;;9.68;4.72;;;;;;;14.32;100.00;99545.03;5402460;26;19998;-73
2024/04/13 03:55:24;;;;;;;10.65;5.13;;;;;;;14.21;100.00;99547.84;5434674;26;19999;-73
2024/04/13 03:57:49;;;;;;;7.80;4.80;;;;;;;13.94;100.00;99512.06;5437885;26;20019;-70
2024/04/13 04:00:18;;;;;;;10.32;5.25;;;;;;;14.27;100.00;99544.66;5391597;26;20423;-70
2024/04/13 04:02:43;;;;;;;12.15;4.63;;;;;;;14.26;100.00;99542.19;5422393;26;20010;-73
2024/04/13 04:05:08;;;;;;;10.52;5.10;;;;;;;14.23;100.00;99543.31;5432405;26;20313;-72
2024/04/13 04:07:34;;;;;;;11.50;4.82;;;;;;;14.30;100.00;99540.94;5427190;26;20022;-71
2024/04/13 04:10:00;;;;;;;9.35;5.00;;;;;;;14.31;100.00;99555.66;5433797;26;20074;-70
2024/04/13 04:12:26;;;;;;;9.13;4.72;;;;;;;14.23;100.00;99557.19;5428852;26;20009;-70
2024/04/13 04:14:51;;;;;;;11.55;4.63;;;;;;;14.27;100.00;99559.53;5404632;26;20006;-74
2024/04/13 04:17:17;;;;;;;9.98;4.78;;;;;;;14.23;100.00;99549.34;5412445;26;19994;-71
2024/04/13 04:19:45;;;;;;;8.90;5.05;;;;;;;14.34;100.00;99553.56;5434154;26;20983;-71
2024/04/13 04:22:10;;;;;;;8.98;4.70;;;;;;;14.23;100.00;99556.38;5434176;26;19995;-70
2024/04/13 04:24:37;;;;;;;7.20;4.60;;;;;;;14.08;100.00;99560.44;5425147;26;20496;-71
2024/04/13 04:27:05;;;;;;;11.25;4.93;;;;;;;14.21;100.00;99553.91;5422329;26;20821;-70
2024/04/13 04:29:31;;;;;;;6.72;4.57;;;;;;;14.34;100.00;99557.97;5438039;26;20057;-70
2024/04/13 04:31:59;;;;;;;9.13;4.90;;;;;;;14.25;100.00;99553.63;5395695;26;20479;-72
2024/04/13 04:34:27;;;;;;;10.07;5.03;;;;;;;13.92;100.00;99519.22;5422284;26;20007;-71
2024/04/13 04:36:52;;;;;;;9.02;5.20;;;;;;;14.24;100.00;99550.19;5434052;26;20415;-71
2024/04/13 04:39:20;;;;;;;10.48;5.28;;;;;;;14.34;100.00;99560.59;5487353;25;20471;-71
2024/04/13 04:41:46;;;;;;;8.35;4.95;;;;;;;14.37;100.00;99566.34;5428930;26;20002;-72
2024/04/13 04:44:11;;;;;;;6.97;4.70;;;;;;;14.40;100.00;99565.22;5418251;26;20448;-70
2024/04/13 04:46:37;;;;;;;9.68;4.75;;;;;;;14.32;100.00;99562.53;5458913;26;20426;-73
2024/04/13 04:49:04;;;;;;;9.10;4.80;;;;;;;14.31;100.00;99561.72;5432132;26;20993;-71
2024/04/13 04:51:29;;;;;;;11.00;5.10;;;;;;;14.17;100.00;99536.03;5441700;26;20023;-71
2024/04/13 04:53:55;;;;;;;8.57;4.80;;;;;;;14.22;100.00;99536.44;5423794;26;20004;-70
2024/04/13 04:56:23;;;;;;;10.10;4.75;;;;;;;14.45;100.00;99570.03;5431387;26;20058;-71
2024/04/13 04:58:51;;;;;;;11.63;5.03;;;;;;;14.36;100.00;99558.66;5431763;26;19994;-71
2024/04/13 05:01:18;;;;;;;11.88;5.22;;;;;;;14.38;100.00;99575.03;5427589;26;20003;-72
2024/04/13 05:03:46;;;;;;;10.38;5.85;;;;;;;14.20;100.00;99549.66;5432675;26;19999;-72
2024/04/13 05:06:11;;;;;;;10.60;5.00;;;;;;;14.09;100.00;99585.63;5428688;26;20004;-71
2024/04/13 05:08:37;;;;;;;8.23;5.18;;;;;;;13.93;100.00;99587.06;5460678;26;20013;-73
2024/04/13 05:11:05;;;;;;;9.38;5.07;;;;;;;13.68;100.00;99564.16;5403269;26;20374;-70
2024/04/13 05:13:30;;;;;;;8.63;5.22;;;;;;;13.81;100.00;99559.44;5428957;26;19995;-70
2024/04/13 05:15:56;;;;;;;8.55;4.97;;;;;;;14.01;100.00;99589.78;5431614;26;20013;-71
2024/04/13 05:18:23;;;;;;;7.88;5.20;;;;;;;13.81;100.00;99590.81;5431320;26;20015;-73
2024/04/13 05:20:48;;;;;;;7.75;5.18;;;;;;;13.70;100.00;99598.81;5396332;26;20107;-71
2024/04/13 05:23:14;;;;;;;8.07;5.30;;;;;;;13.22;100.00;99562.13;5431712;26;20649;-72
2024/04/13 05:25:47;;;;;;;9.55;5.60;;;;;;;13.23;100.00;99597.72;5432924;26;20010;-72
2024/04/13 05:28:13;;;;;;;12.43;6.03;;;;;;;13.22;100.00;99603.91;5411215;26;20030;-71
2024/04/13 05:30:38;;;;;;;9.75;6.15;;;;;;;13.31;100.00;99596.25;5434683;26;20002;-70
2024/04/13 05:33:04;;;;;;;11.00;5.53;;;;;;;13.38;100.00;99608.63;5406651;26;20006;-72
2024/04/13 05:35:32;;;;;;;9.30;5.07;;;;;;;13.12;100.00;99586.59;5398713;26;20007;-71
2024/04/13 05:37:57;;;;;;;12.25;5.85;;;;;;;13.41;100.00;99605.69;5428185;26;20033;-72
2024/04/13 05:40:25;;;;;;;10.00;5.75;;;;;;;13.38;100.00;99590.31;5433327;26;20006;-70
2024/04/13 05:42:52;;;;;;;9.02;5.28;;;;;;;13.70;100.00;99611.88;5435096;26;19998;-71
2024/04/13 05:45:19;;;;;;;10.13;5.45;;;;;;;13.48;100.00;99584.28;5440185;26;20003;-70
2024/04/13 05:47:45;;;;;;;12.13;5.50;;;;;;;13.50;100.00;99579.72;5427890;26;20151;-71
2024/04/13 05:50:10;;;;;;;9.15;5.10;;;;;;;13.64;100.00;99624.53;5431696;26;20068;-71
2024/04/13 05:52:37;;;;;;;10.98;5.50;;;;;;;13.70;100.00;99628.38;5428419;26;19999;-68
2024/04/13 05:55:11;;;;;;;9.27;5.07;;;;;;;13.69;100.00;99626.75;5428348;26;20075;-69
2024/04/13 05:57:37;;;;;;;9.25;4.82;;;;;;;13.77;100.00;99636.50;5405690;26;19998;-71
2024/04/13 06:00:04;;;;;;;7.90;5.18;;;;;;;13.74;100.00;99634.97;5430342;26;20042;-70
2024/04/13 06:02:29;;;;;;;9.63;5.55;;;;;;;13.72;100.00;99615.16;5431369;26;20013;-71
2024/04/13 06:04:57;;;;;;;11.27;5.35;;;;;;;13.59;100.00;99592.75;5424670;26;20038;-70
2024/04/13 06:07:23;;;;;;;9.77;4.75;;;;;;;13.50;100.00;99630.19;5421338;26;20003;-70
2024/04/13 06:09:48;;;;;;;9.80;5.03;;;;;;;13.54;100.00;99636.78;5431511;26;20006;-70
2024/04/13 06:12:19;;;;;;;10.65;4.78;;;;;;;13.76;100.00;99629.59;5444987;26;20425;-71
2024/04/13 06:14:50;;;;;;;7.93;4.63;;;;;;;13.87;100.00;99641.69;5438561;26;20010;-70
2024/04/13 06:17:16;;;;;;;9.10;5.22;;;;;;;13.88;100.00;99636.31;5429641;26;20085;-72
2024/04/13 06:19:43;;;;;;;9.02;4.72;;;;;;;13.84;100.00;99654.09;5397532;26;20015;-72
2024/04/13 06:22:11;;;;;;;10.00;5.00;;;;;;;13.98;100.00;99660.69;5424396;26;19999;-72
2024/04/13 06:24:37;;;;;;;8.38;5.15;;;;;;;14.13;100.00;99649.78;5425739;26;20011;-71
2024/04/13 06:27:03;;;;;;;9.52;4.57;;;;;;;14.15;100.00;99643.41;5432146;26;19999;-72
2024/04/13 06:29:28;;;;;;;9.90;5.05;;;;;;;14.15;100.00;99651.25;5435165;26;20028;-71
2024/04/13 06:31:56;;;;;;;9.10;4.70;;;;;;;14.31;100.00;99649.81;5398963;26;20438;-69
2024/04/13 06:34:22;;;;;;;11.18;5.20;;;;;;;14.16;100.00;99616.28;5431152;26;20033;-69
2024/04/13 06:36:48;;;;;;;8.80;5.05;;;;;;;14.38;100.00;99641.28;5400174;26;19995;-71
2024/04/13 06:39:14;;;;;;;10.48;4.97;;;;;;;14.42;100.00;99642.63;5444207;26;20002;-70
2024/04/13 06:41:45;;;;;;;9.23;4.80;;;;;;;14.55;100.00;99636.25;5432695;26;20463;-70
2024/04/13 06:44:11;;;;;;;9.75;4.75;;;;;;;14.56;100.00;99630.03;5402626;26;20861;-70
2024/04/13 06:46:39;;;;;;;9.85;5.18;;;;;;;14.30;100.00;99615.00;5448957;26;20012;-70
2024/04/13 06:49:04;;;;;;;10.93;4.97;;;;;;;14.35;100.00;99617.19;5434023;26;20322;-70
2024/04/13 06:51:29;;;;;;;10.65;5.20;;;;;;;14.39;100.00;99616.75;5496652;25;20018;-71
2024/04/13 06:53:55;;;;;;;9.32;5.05;;;;;;;14.46;100.00;99618.81;5427459;26;20069;-71
2024/04/13 06:56:20;;;;;;;10.75;4.82;;;;;;;14.38;100.00;99627.34;5430753;26;20053;-71
2024/04/13 06:58:46;;;;;;;9.50;5.20;;;;;;;14.39;100.00;99631.63;5419593;26;20013;-70
2024/04/13 07:01:12;;;;;;;11.27;5.70;;;;;;;14.39;100.00;99631.63;5398891;26;20076;-71
2024/04/13 07:03:39;;;;;;;8.18;5.20;;;;;;;14.31;100.00;99632.34;5432433;26;20018;-71
2024/04/13 07:06:05;;;;;;;11.30;5.32;;;;;;;14.21;100.00;99637.59;5425343;26;20010;-72
2024/04/13 07:08:33;;;;;;;9.85;4.72;;;;;;;13.95;100.00;99603.41;5449975;26;20006;-71
2024/04/13 07:10:59;;;;;;;8.55;4.97;;;;;;;14.03;100.00;99634.09;5426226;26;20026;-69
2024/04/13 07:13:25;;;;;;;11.30;5.40;;;;;;;13.99;100.00;99637.97;5399157;26;20067;-72
2024/04/13 07:15:50;;;;;;;11.63;5.00;;;;;;;14.00;100.00;99639.59;5399779;26;20564;-69
2024/04/13 07:18:18;;;;;;;9.85;5.53;;;;;;;13.99;100.00;99644.00;5431051;26;19998;-72
2024/04/13 07:20:49;;;;;;;8.40;5.25;;;;;;;13.99;100.00;99638.78;5402245;26;20433;-72
2024/04/13 07:23:16;;;;;;;10.02;4.90;;;;;;;14.16;100.00;99634.59;5402022;26;19995;-69
2024/04/13 07:25:42;;;;;;;10.48;5.43;;;;;;;14.12;100.00;99638.47;5432460;26;20011;-69
2024/04/13 07:28:09;;;;;;;9.00;5.20;;;;;;;14.05;100.00;99642.59;5428869;26;20026;-69
2024/04/13 07:30:35;;;;;;;13.02;5.43;;;;;;;13.97;100.00;99639.91;5428346;26;20015;-69
2024/04/13 07:33:02;;;;;;;10.65;5.13;;;;;;;14.07;100.00;99640.66;5431923;26;20052;-71
2024/04/13 07:35:28;;;;;;;9.80;5.57;;;;;;;13.75;100.00;99612.28;5428686;26;20026;-69
2024/04/13 07:37:54;;;;;;;12.50;6.18;;;;;;;14.06;100.00;99631.19;5429612;26;20003;-69
2024/04/13 07:40:19;;;;;;;12.73;6.00;;;;;;;14.25;100.00;99627.69;5430207;26;20002;-70
2024/04/13 07:42:44;;;;;;;12.30;5.65;;;;;;;14.26;100.00;99628.53;5430071;26;20014;-69
2024/04/13 07:45:10;;;;;;;10.25;5.65;;;;;;;14.01;100.00;99626.38;5399942;26;20014;-69
2024/04/13 07:47:35;;;;;;;11.98;5.70;;;;;;;14.10;100.00;99629.94;5397765;26;20772;-69
2024/04/13 07:50:01;;;;;;;10.35;6.15;;;;;;;13.95;100.00;99600.81;5449308;26;20007;-69
2024/04/13 07:52:28;;;;;;;14.45;8.70;;;;;;;14.27;100.00;99636.19;5414477;26;20060;-70
2024/04/13 07:54:58;;;;;;;14.57;8.23;;;;;;;14.33;100.00;99606.88;5411238;26;20022;-70
2024/04/13 07:57:24;;;;;;;14.70;7.43;;;;;;;14.41;100.00;99600.91;5428496;26;20018;-71
2024/04/13 07:59:49;;;;;;;16.35;9.30;;;;;;;14.60;100.00;99640.09;5430993;26;20004;-70
2024/04/13 08:02:15;;;;;;;13.10;7.70;;;;;;;14.53;100.00;99631.16;5424375;26;20025;-69
2024/04/13 08:04:40;;;;;;;10.23;5.80;;;;;;;14.65;100.00;99634.41;5427376;26;20448;-71
2024/04/13 08:07:05;;;;;;;10.88;5.85;;;;;;;14.80;100.00;99630.34;5433705;26;20009;-69
2024/04/13 08:09:36;;;;;;;11.90;5.80;;;;;;;14.79;100.00;99620.03;5396336;26;19999;-70
2024/04/13 08:12:01;;;;;;;12.43;6.50;;;;;;;14.91;100.00;99626.72;5422403;26;20006;-69
2024/04/13 08:14:27;;;;;;;10.82;6.28;;;;;;;14.88;100.00;99627.00;5406785;26;20347;-69
2024/04/13 08:16:52;;;;;;;14.05;6.20;;;;;;;14.88;100.00;99620.94;5424767;26;20459;-70
2024/04/13 08:19:18;;;;;;;15.68;7.38;;;;;;;14.96;100.00;99616.59;5396955;26;19999;-72
2024/04/13 08:21:43;;;;;;;13.45;7.00;;;;;;;14.84;100.00;99585.53;5402861;26;20006;-72
2024/04/13 08:24:11;;;;;;;14.80;7.57;;;;;;;15.08;100.00;99619.84;5428844;26;20503;-69
2024/04/13 08:26:36;;;;;;;15.18;8.18;;;;;;;15.11;100.00;99608.22;5396127;26;19995;-69
2024/04/13 08:29:04;;;;;;;19.73;8.43;;;;;;;15.11;100.00;99610.84;5418722;26;20059;-69
2024/04/13 08:31:29;;;;;;;15.77;7.68;;;;;;;15.25;100.00;99620.81;5433899;26;20005;-69
2024/04/13 08:33:55;;;;;;;15.90;8.63;;;;;;;15.34;100.00;99619.09;5402440;26;19999;-72
2024/04/13 08:36:20;;;;;;;11.40;7.03;;;;;;;17.37;100.00;99611.47;5392609;26;20412;-72
2024/04/13 08:38:46;;;;;;;13.00;6.35;;;;;;;19.64;95.37;99620.59;5425050;26;20074;-71
2024/04/13 08:41:20;;;;;;;14.52;5.93;;;;;;;20.77;83.76;99610.78;5400085;26;19991;-70
2024/04/13 08:43:46;;;;;;;11.82;4.20;;;;;;;21.18;78.23;99605.72;5487780;25;20007;-69
2024/04/13 08:46:11;;;;;;;7.55;3.97;;;;;;;21.49;73.55;99621.28;5398648;26;20113;-70
2024/04/13 08:48:41;;;;;;;8.27;2.80;;;;;;;21.22;71.08;99600.88;5428923;26;20009;-68
2024/04/13 08:51:07;;;;;;;;;;;;;;;20.61;76.49;99630.31;5434163;26;19995;-71
2024/04/13 08:53:34;;;;;;;7.88;3.33;;;;;;;19.56;80.95;99618.84;5397073;26;20490;-70
2024/04/13 08:56:00;;;;;;;9.70;4.10;;;;;;;19.14;84.46;99628.09;5401716;26;20021;-66
2024/04/13 08:58:29;;;;;;;8.70;3.50;;;;;;;18.54;81.68;99595.28;5400680;26;20326;-67
2024/04/13 09:00:59;;;;;;;7.47;2.80;;;;;;;18.18;84.80;99617.66;5399976;26;20034;-67
2024/04/13 09:03:27;;;;;;;7.85;2.72;;;;;;;18.00;85.60;99583.66;5399567;26;20003;-65
2024/04/13 09:05:53;;;;;;;7.57;3.00;;;;;;;18.22;83.57;99612.88;5396094;26;20931;-66
2024/04/13 09:08:21;;;;;;;7.63;2.63;;;;;;;18.14;87.02;99590.03;5433071;26;20011;-65
2024/04/13 09:10:48;;;;;;;10.00;2.83;;;;;;;18.19;81.04;99611.38;5425218;26;20600;-66
2024/04/13 09:13:13;;;;;;;6.38;2.30;;;;;;;18.29;81.14;99610.38;5427557;26;19995;-66
2024/04/13 09:15:41;;;;;;;7.07;2.50;;;;;;;18.21;80.87;99575.19;5426473;26;20108;-66
2024/04/13 09:18:09;;;;;;;9.23;2.40;;;;;;;18.38;81.75;99569.84;5399180;26;20014;-66
2024/04/13 09:20:34;;;;;;;10.00;2.70;;;;;;;18.64;78.23;99596.72;5419048;26;20502;-66
2024/04/13 09:23:00;;;;;;;8.70;2.30;;;;;;;18.75;79.41;99587.63;5452427;26;20061;-65
2024/04/13 09:25:26;;;;;;;11.00;2.70;;;;;;;18.93;78.28;99600.53;5399691;26;20867;-66
2024/04/13 09:28:02;;;;;;;7.43;2.25;;;;;;;18.74;78.48;99590.41;5435109;26;20018;-68
2024/04/13 09:30:27;;;;;;;8.48;2.55;;;;;;;18.80;79.77;99558.09;5420100;26;20046;-67
2024/04/13 09:33:03;;;;;;;8.88;3.10;;;;;;;19.20;77.36;99579.91;5428433;26;20928;-67
2024/04/13 09:35:29;;;;;;;7.00;2.42;;;;;;;19.31;74.47;99576.03;5424649;26;20346;-68
2024/04/13 09:37:58;;;;;;;8.38;2.40;;;;;;;19.38;73.80;99576.97;5400249;26;21014;-67
2024/04/13 09:40:26;;;;;;;7.95;2.10;;;;;;;19.49;69.87;99586.28;5397302;26;20007;-66
2024/04/13 09:42:54;;;;;;;8.73;2.35;;;;;;;19.43;72.98;99582.53;5424507;26;20013;-67
2024/04/13 09:45:20;;;;;;;8.20;2.20;;;;;;;19.35;75.13;99587.91;5425693;26;20464;-66
2024/04/13 09:47:49;;;;;;;8.25;2.30;;;;;;;19.46;73.93;99578.72;5432975;26;20015;-66
2024/04/13 09:50:14;;;;;;;7.03;2.40;;;;;;;19.61;74.22;99582.22;5428041;26;20006;-66
2024/04/13 09:52:40;;;;;;;8.05;2.30;;;;;;;19.95;70.52;99588.81;5438807;26;20089;-66
2024/04/13 09:55:06;;;;;;;9.63;2.95;;;;;;;19.69;71.30;99547.00;5400723;26;20013;-66
2024/04/13 09:57:31;;;;;;;7.95;2.53;;;;;;;20.14;72.57;99572.44;5431544;26;20058;-65
2024/04/13 09:59:57;;;;;;;10.95;2.42;;;;;;;20.22;72.81;99570.69;5396682;26;20023;-65
2024/04/13 10:02:25;;;;;;;9.25;2.50;;;;;;;20.31;70.92;99573.03;5398536;26;20003;-66
2024/04/13 10:04:51;;;;;;;9.50;2.35;;;;;;;20.47;69.85;99534.22;5427031;26;20482;-67
2024/04/13 10:07:17;;;;;;;9.57;2.70;;;;;;;20.60;69.33;99549.41;5454058;26;19996;-67
2024/04/13 10:09:48;;;;;;;7.78;2.38;;;;;;;20.82;69.55;99553.72;5424860;26;20096;-67
2024/04/13 10:12:17;;;;;;;6.80;2.42;;;;;;;20.49;68.27;99533.03;5429874;26;20107;-66
2024/04/13 10:14:43;;;;;;;8.38;2.38;;;;;;;20.45;68.90;99515.91;5418697;26;20080;-66
2024/04/13 10:17:09;;;;;;;7.15;3.40;;;;;;;20.55;69.45;99500.59;5407103;26;20010;-66
2024/04/13 10:19:35;;;;;;;8.45;3.17;;;;;;;20.95;69.06;99534.53;5422349;26;20014;-66
2024/04/13 10:22:05;;;;;;;6.68;3.05;;;;;;;21.16;69.33;99530.25;5428309;26;20007;-66
2024/04/13 10:24:30;;;;;;;7.35;3.20;;;;;;;21.20;68.68;99523.56;5427980;26;20042;-66
2024/04/13 10:27:09;;;;;;;13.75;5.20;;;;;;;21.35;69.02;99521.63;5453696;26;21436;-64
2024/04/13 10:29:40;;;;;;;9.38;3.85;;;;;;;21.40;68.22;99518.41;5428555;26;20009;-66
2024/04/13 10:32:19;;;;;;;9.38;3.70;;;;;;;21.36;68.08;99494.19;5393386;26;20005;-65
2024/04/13 10:34:45;;;;;;;10.43;3.65;;;;;;;21.74;66.83;99524.75;5429582;26;20018;-66
2024/04/13 10:37:32;;;;;;;11.52;3.60;;;;;;;21.81;67.19;99520.31;5433121;26;20002;-66
2024/04/13 10:39:59;;;;;;;11.65;3.67;;;;;;;21.69;66.50;99489.13;5392009;26;20021;-66
2024/04/13 10:42:41;;;;;;;9.02;3.78;;;;;;;21.93;64.89;99516.13;5462005;26;20013;-67
2024/04/13 10:45:17;;;;;;;12.45;3.97;;;;;;;21.99;64.58;99488.03;5397325;26;20003;-66
2024/04/13 10:47:44;;;;;;;14.98;3.78;;;;;;;21.99;64.33;99480.88;5425450;26;22063;-65
2024/04/13 10:50:14;;;;;;;10.68;3.42;;;;;;;22.02;65.69;99485.81;5437399;26;20912;-65
2024/04/13 10:52:42;;;;;;;11.18;3.72;;;;;;;22.25;62.94;99497.88;5428140;26;19995;-66
2024/04/13 10:55:12;;;;;;;9.55;3.90;;;;;;;22.38;63.03;99490.03;5435563;26;21403;-65
2024/04/13 10:57:39;;;;;;;11.88;3.80;;;;;;;22.57;64.34;99496.38;5397411;26;20018;-66
2024/04/13 11:00:08;;;;;;;9.75;4.20;;;;;;;22.60;64.13;99487.22;5429848;26;20045;-66
2024/04/13 11:02:37;;;;;;;9.43;4.10;;;;;;;22.63;62.75;99492.09;5447706;26;19998;-65
2024/04/13 11:05:06;;;;;;;10.00;4.10;;;;;;;22.68;63.13;99486.22;5399560;26;20014;-66
2024/04/13 11:07:32;;;;;;;9.35;4.35;;;;;;;22.57;63.74;99490.28;5468476;26;20044;-66
2024/04/13 11:10:00;;;;;;;9.38;4.50;;;;;;;22.70;64.48;99482.31;5432741;26;20049;-65
2024/04/13 11:12:29;;;;;;;9.32;4.18;;;;;;;22.79;63.50;99470.50;5431736;26;20021;-65
2024/04/13 11:14:57;;;;;;;14.43;6.03;;;;;;;22.88;63.28;99479.09;5433515;26;20538;-65
2024/04/13 11:17:22;;;;;;;12.05;5.18;;;;;;;22.96;63.42;99478.06;5428235;26;20091;-66
2024/04/13 11:19:48;;;;;;;10.10;4.40;;;;;;;22.98;62.22;99462.75;5491864;25;20858;-64
2024/04/13 11:22:14;;;;;;;15.50;6.20;;;;;;;23.07;62.46;99466.84;5400435;26;20050;-65
2024/04/13 11:24:39;;;;;;;12.05;4.50;;;;;;;23.11;62.68;99462.78;5428262;26;20014;-66